Porter County Municipal Airport
KVPZ : now visible

Airfield :











YOU CAN JOIN US ON...

 
LOGIN :

Register | Disclaimer

   EN    FR    IT 

 









Legend :    VFR   Marginal VFR   IFR   Intensive IFR   Very Intensive IFR
Visi :
Ceiling :
>= 8 km
>= 3000ft
5 to 8 km
1000 to 3000 ft
1500m to 5 km
500 to 1000 ft
800 to 1500m
200 to 500 ft
< 800m
< 200 ft
Symbols :   Thunderstorms  Fog  Heavy snow  Heavy precipitations  Wind > 20 kt






- Airport Elevation : 770 ft


KVPZ - Porter County Municipal

CURRENT METAR :
  • 302307Z AUTO 33016G28KT 5SM -SN BR OVC014 00/M02 A2991 RMK AO2 PK WND 33028/2259 P0000 T00001022

EXPIRED METARs :
  • 302256Z AUTO 33016G32KT 6SM -SN OVC016 00/M03 A2991 RMK AO2 PK WND 34035/2217 SLP135 P0000 T00001028
  • 302219Z AUTO 33016G35KT 4SM -SN OVC015 00/M03 A2989 RMK AO2 PK WND 34035/2217 P0000 T00001028
  • 302156Z AUTO 33013G32KT 4SM -SN OVC014 00/M03 A2989 RMK AO2 PK WND 34034/2130 UPB11E29SNE11B16E26B29 SLP129 P0000 T00001028
  • 302145Z AUTO 33017G30KT 8SM -SN OVC014 00/M03 A2989 RMK AO2 PK WND 34034/2130 UPB11E29SNE11B16E26B29 P0000 T00001028
  • 302104Z AUTO 34017G31KT 9SM -SN OVC016 00/M03 A2988 RMK AO2 PK WND 34031/2103 P0000 T00001028
  • 302056Z AUTO 33015G32KT 9SM -SN OVC014 00/M03 A2988 RMK AO2 PK WND 32032/2013 UPB03E06SNE03B06 SLP124 P0000 60000 T00001028 53002

TAF N/A
KZAU FIR / North America



MET'MAP, your aeronautical weather chart ! - Copyright ORBIFLY December 2007 - Disclaimer

ORBIFLY MET'MAP TEAM :

Programming & Development : Alexandra Zaïnal
Concept & original design : Baudouin d'Aumeries
Assistance for programming : Marc-Olivier Méhu
Technical & hardware support : Manuel Goepfert

Contact : metmap@orbifly.com




SOURCES & CREDITS :

   NOAA       Earth
Advisory